Bennett, Iowa
Current Conditions -  °F | °C
As of 3:52 AM on Saturday 22 Nov 2014 (Local Time) from KDVN Reporting Station
Haze Haze  
Wind Chill: 29°   Ceiling: 1100
Heat Index: 35°   Visibility: 5mi
Dew Point: 32°   Wind: 8mph
Humidity: 89%   Direction: 180°S
Pressure: 30.03"   Gusts: NA
Location:  41.74°N, 90.97°W
Report Text: KDVN 220952Z AUTO 18007KT 5SM BR OVC011 02/00 A3003 RMK AO2 SLP175 T00170000
Loading
Personal Weather Stations






























Interactive Weather Map New forecast layout! Learn more

10-Day Weather Forecast

Advertisements
Track Severe Weather on mobile